sensor_id;sensor_type;location;lat;lon;timestamp;pressure;altitude;pressure_sealevel;temperature;humidity
6464;BME280;3265;42.694;23.282;2023-05-03T00:00:57;94947.16;;;13.97;48.53
6464;BME280;3265;42.694;23.282;2023-05-03T00:03:25;94948.19;;;13.96;48.20
6464;BME280;3265;42.694;23.282;2023-05-03T00:05:52;94954.69;;;13.93;48.04
6464;BME280;3265;42.694;23.282;2023-05-03T00:08:19;94950.59;;;13.86;48.39
6464;BME280;3265;42.694;23.282;2023-05-03T00:10:46;94943.00;;;13.84;47.96
6464;BME280;3265;42.694;23.282;2023-05-03T00:13:34;94952.66;;;13.84;47.90
6464;BME280;3265;42.694;23.282;2023-05-03T00:16:03;94951.50;;;13.80;47.72
6464;BME280;3265;42.694;23.282;2023-05-03T00:18:30;94959.25;;;13.75;47.93
6464;BME280;3265;42.694;23.282;2023-05-03T00:21:09;94944.03;;;13.72;47.85
6464;BME280;3265;42.694;23.282;2023-05-03T00:23:36;94950.97;;;13.78;47.67
6464;BME280;3265;42.694;23.282;2023-05-03T00:26:03;94941.66;;;13.70;47.16
6464;BME280;3265;42.694;23.282;2023-05-03T00:28:31;94956.53;;;13.70;46.77
6464;BME280;3265;42.694;23.282;2023-05-03T00:31:05;94954.75;;;13.58;47.11
6464;BME280;3265;42.694;23.282;2023-05-03T00:33:33;94960.19;;;13.57;47.33
6464;BME280;3265;42.694;23.282;2023-05-03T00:36:06;94955.41;;;13.54;47.10
6464;BME280;3265;42.694;23.282;2023-05-03T00:38:33;94964.03;;;13.54;47.57
6464;BME280;3265;42.694;23.282;2023-05-03T00:41:00;94963.94;;;13.49;47.26
6464;BME280;3265;42.694;23.282;2023-05-03T00:43:27;94964.41;;;13.46;47.73
6464;BME280;3265;42.694;23.282;2023-05-03T00:45:57;94967.91;;;13.40;47.48
6464;BME280;3265;42.694;23.282;2023-05-03T00:48:24;94981.88;;;13.34;47.73
6464;BME280;3265;42.694;23.282;2023-05-03T00:50:52;94975.06;;;13.33;47.62
6464;BME280;3265;42.694;23.282;2023-05-03T00:53:20;94963.69;;;13.16;48.12
6464;BME280;3265;42.694;23.282;2023-05-03T00:55:47;94967.44;;;13.20;48.14
6464;BME280;3265;42.694;23.282;2023-05-03T00:58:15;94969.38;;;13.25;47.96
6464;BME280;3265;42.694;23.282;2023-05-03T01:00:42;94962.03;;;13.22;47.76
6464;BME280;3265;42.694;23.282;2023-05-03T01:03:10;94961.34;;;13.26;47.40
6464;BME280;3265;42.694;23.282;2023-05-03T01:05:43;94951.00;;;13.20;47.46
6464;BME280;3265;42.694;23.282;2023-05-03T01:08:19;94952.03;;;13.19;47.62
6464;BME280;3265;42.694;23.282;2023-05-03T01:10:55;94942.03;;;13.16;47.40
6464;BME280;3265;42.694;23.282;2023-05-03T01:13:33;94939.53;;;13.09;47.71
6464;BME280;3265;42.694;23.282;2023-05-03T01:16:06;94937.94;;;13.08;47.57
6464;BME280;3265;42.694;23.282;2023-05-03T01:18:38;94938.03;;;13.01;47.84
6464;BME280;3265;42.694;23.282;2023-05-03T01:21:07;94933.03;;;13.00;48.11
6464;BME280;3265;42.694;23.282;2023-05-03T01:23:39;94918.97;;;12.89;48.13
6464;BME280;3265;42.694;23.282;2023-05-03T01:26:18;94919.16;;;12.88;48.18
6464;BME280;3265;42.694;23.282;2023-05-03T01:28:46;94923.13;;;12.90;48.47
6464;BME280;3265;42.694;23.282;2023-05-03T01:31:18;94917.72;;;12.92;48.37
6464;BME280;3265;42.694;23.282;2023-05-03T01:33:54;94915.44;;;12.95;48.68
6464;BME280;3265;42.694;23.282;2023-05-03T01:36:28;94913.16;;;12.99;47.94
6464;BME280;3265;42.694;23.282;2023-05-03T01:38:57;94919.53;;;12.91;48.27
6464;BME280;3265;42.694;23.282;2023-05-03T01:41:25;94920.22;;;12.87;48.33
6464;BME280;3265;42.694;23.282;2023-05-03T01:43:54;94919.88;;;12.95;48.47
6464;BME280;3265;42.694;23.282;2023-05-03T01:46:21;94920.22;;;12.87;48.67
6464;BME280;3265;42.694;23.282;2023-05-03T01:48:48;94917.47;;;12.93;48.36
6464;BME280;3265;42.694;23.282;2023-05-03T01:51:15;94913.16;;;12.87;48.52
6464;BME280;3265;42.694;23.282;2023-05-03T01:53:42;94905.56;;;12.86;48.80
6464;BME280;3265;42.694;23.282;2023-05-03T01:56:09;94907.81;;;12.82;48.64
6464;BME280;3265;42.694;23.282;2023-05-03T01:58:37;94904.31;;;12.77;48.87
6464;BME280;3265;42.694;23.282;2023-05-03T02:01:04;94899.66;;;12.79;49.37
6464;BME280;3265;42.694;23.282;2023-05-03T02:03:32;94894.66;;;12.77;49.12
6464;BME280;3265;42.694;23.282;2023-05-03T02:05:59;94890.69;;;12.75;48.56
6464;BME280;3265;42.694;23.282;2023-05-03T02:08:26;94887.75;;;12.71;49.19
6464;BME280;3265;42.694;23.282;2023-05-03T02:10:53;94889.44;;;12.66;49.43
6464;BME280;3265;42.694;23.282;2023-05-03T02:13:19;94876.38;;;12.54;49.80
6464;BME280;3265;42.694;23.282;2023-05-03T02:15:47;94889.50;;;12.47;49.85
6464;BME280;3265;42.694;23.282;2023-05-03T02:18:14;94869.53;;;12.41;49.87
6464;BME280;3265;42.694;23.282;2023-05-03T02:20:44;94857.72;;;12.27;50.68
6464;BME280;3265;42.694;23.282;2023-05-03T02:23:11;94876.84;;;12.21;50.57
6464;BME280;3265;42.694;23.282;2023-05-03T02:25:38;94870.53;;;12.17;51.03
6464;BME280;3265;42.694;23.282;2023-05-03T02:28:05;94877.31;;;12.18;50.80
6464;BME280;3265;42.694;23.282;2023-05-03T02:33:00;94873.72;;;12.31;50.85
6464;BME280;3265;42.694;23.282;2023-05-03T02:35:27;94876.56;;;12.41;50.50
6464;BME280;3265;42.694;23.282;2023-05-03T02:37:54;94875.31;;;12.32;50.75
6464;BME280;3265;42.694;23.282;2023-05-03T02:40:21;94881.97;;;12.28;50.99
6464;BME280;3265;42.694;23.282;2023-05-03T02:42:48;94881.97;;;12.28;50.89
6464;BME280;3265;42.694;23.282;2023-05-03T02:45:14;94894.94;;;12.34;50.99
6464;BME280;3265;42.694;23.282;2023-05-03T02:47:41;94903.78;;;12.45;50.74
6464;BME280;3265;42.694;23.282;2023-05-03T02:50:10;94899.47;;;12.39;50.99
6464;BME280;3265;42.694;23.282;2023-05-03T02:52:37;94900.19;;;12.46;50.86
6464;BME280;3265;42.694;23.282;2023-05-03T02:55:04;94886.06;;;12.35;50.62
6464;BME280;3265;42.694;23.282;2023-05-03T02:57:31;94887.47;;;12.38;50.96
6464;BME280;3265;42.694;23.282;2023-05-03T02:59:58;94892.78;;;12.43;50.68
6464;BME280;3265;42.694;23.282;2023-05-03T03:02:25;94894.03;;;12.40;50.79
6464;BME280;3265;42.694;23.282;2023-05-03T03:04:52;94894.59;;;12.42;50.90
6464;BME280;3265;42.694;23.282;2023-05-03T03:07:20;94902.50;;;12.36;50.89
6464;BME280;3265;42.694;23.282;2023-05-03T03:09:47;94896.50;;;12.35;51.01
6464;BME280;3265;42.694;23.282;2023-05-03T03:12:13;94901.81;;;12.29;51.25
6464;BME280;3265;42.694;23.282;2023-05-03T03:14:40;94891.03;;;12.25;51.78
6464;BME280;3265;42.694;23.282;2023-05-03T03:17:10;94881.69;;;12.06;52.06
6464;BME280;3265;42.694;23.282;2023-05-03T03:19:37;94898.81;;;12.14;51.83
6464;BME280;3265;42.694;23.282;2023-05-03T03:22:04;94897.91;;;12.08;51.99
6464;BME280;3265;42.694;23.282;2023-05-03T03:24:33;94900.19;;;12.16;52.28
6464;BME280;3265;42.694;23.282;2023-05-03T03:27:00;94898.25;;;12.12;52.21
6464;BME280;3265;42.694;23.282;2023-05-03T03:29:28;94899.19;;;12.17;52.12
6464;BME280;3265;42.694;23.282;2023-05-03T03:31:56;94915.06;;;12.27;51.77
6464;BME280;3265;42.694;23.282;2023-05-03T03:34:22;94920.88;;;12.29;51.85
6464;BME280;3265;42.694;23.282;2023-05-03T03:36:49;94910.66;;;12.28;52.38
6464;BME280;3265;42.694;23.282;2023-05-03T03:39:16;94921.31;;;12.26;52.11
6464;BME280;3265;42.694;23.282;2023-05-03T03:41:44;94925.47;;;12.27;51.86
6464;BME280;3265;42.694;23.282;2023-05-03T03:44:11;94919.00;;;12.18;52.30
6464;BME280;3265;42.694;23.282;2023-05-03T03:46:38;94920.47;;;12.14;52.32
6464;BME280;3265;42.694;23.282;2023-05-03T03:49:05;94925.97;;;12.06;52.13
6464;BME280;3265;42.694;23.282;2023-05-03T03:51:32;94915.41;;;12.01;52.31
6464;BME280;3265;42.694;23.282;2023-05-03T03:53:59;94922.78;;;12.04;52.42
6464;BME280;3265;42.694;23.282;2023-05-03T03:56:26;94933.22;;;12.04;52.52
6464;BME280;3265;42.694;23.282;2023-05-03T03:58:54;94923.47;;;12.00;52.49
6464;BME280;3265;42.694;23.282;2023-05-03T04:01:23;94914.56;;;11.89;52.58
6464;BME280;3265;42.694;23.282;2023-05-03T04:03:51;94935.53;;;11.94;52.50
6464;BME280;3265;42.694;23.282;2023-05-03T04:06:17;94926.69;;;11.95;52.61
6464;BME280;3265;42.694;23.282;2023-05-03T04:08:44;94932.16;;;11.93;52.54
6464;BME280;3265;42.694;23.282;2023-05-03T04:11:11;94941.31;;;11.96;52.52
6464;BME280;3265;42.694;23.282;2023-05-03T04:13:38;94940.31;;;11.97;52.77
6464;BME280;3265;42.694;23.282;2023-05-03T04:16:07;94931.78;;;11.90;52.50
6464;BME280;3265;42.694;23.282;2023-05-03T04:18:34;94941.47;;;12.01;52.69
6464;BME280;3265;42.694;23.282;2023-05-03T04:21:01;94943.84;;;12.03;52.43
6464;BME280;3265;42.694;23.282;2023-05-03T04:23:27;94957.53;;;11.98;52.96
6464;BME280;3265;42.694;23.282;2023-05-03T04:25:54;94977.13;;;12.01;52.39
6464;BME280;3265;42.694;23.282;2023-05-03T04:28:21;94963.22;;;12.07;52.79
6464;BME280;3265;42.694;23.282;2023-05-03T04:30:49;94981.25;;;11.90;52.50
6464;BME280;3265;42.694;23.282;2023-05-03T04:33:17;94998.75;;;12.01;53.00
6464;BME280;3265;42.694;23.282;2023-05-03T04:35:48;95005.50;;;12.09;52.96
6464;BME280;3265;42.694;23.282;2023-05-03T04:38:15;95004.72;;;12.08;52.67
6464;BME280;3265;42.694;23.282;2023-05-03T04:40:43;94998.94;;;12.06;53.58
6464;BME280;3265;42.694;23.282;2023-05-03T04:43:10;95010.91;;;12.07;53.05
6464;BME280;3265;42.694;23.282;2023-05-03T04:45:37;95010.91;;;12.07;53.13
6464;BME280;3265;42.694;23.282;2023-05-03T04:48:04;95014.31;;;12.08;53.35
6464;BME280;3265;42.694;23.282;2023-05-03T04:50:32;95020.63;;;12.00;53.31
6464;BME280;3265;42.694;23.282;2023-05-03T04:52:59;95018.22;;;11.99;53.80
6464;BME280;3265;42.694;23.282;2023-05-03T04:55:26;95006.88;;;11.93;53.62
6464;BME280;3265;42.694;23.282;2023-05-03T04:57:54;95016.38;;;12.06;53.49
6464;BME280;3265;42.694;23.282;2023-05-03T05:00:21;95016.88;;;12.14;53.60
6464;BME280;3265;42.694;23.282;2023-05-03T05:02:48;95021.28;;;12.14;53.76
6464;BME280;3265;42.694;23.282;2023-05-03T05:05:14;95025.06;;;12.18;53.95
6464;BME280;3265;42.694;23.282;2023-05-03T05:07:43;95024.44;;;12.16;53.91
6464;BME280;3265;42.694;23.282;2023-05-03T05:10:11;95038.66;;;12.20;54.25
6464;BME280;3265;42.694;23.282;2023-05-03T05:12:39;95045.91;;;12.18;54.91
6464;BME280;3265;42.694;23.282;2023-05-03T05:15:06;95050.13;;;12.12;56.57
6464;BME280;3265;42.694;23.282;2023-05-03T05:17:33;95036.25;;;12.00;58.46
6464;BME280;3265;42.694;23.282;2023-05-03T05:20:00;95046.25;;;12.03;60.28
6464;BME280;3265;42.694;23.282;2023-05-03T05:22:28;95043.72;;;11.97;62.84
6464;BME280;3265;42.694;23.282;2023-05-03T05:24:56;95047.03;;;12.04;62.35
6464;BME280;3265;42.694;23.282;2023-05-03T05:27:23;95047.69;;;11.99;61.38
6464;BME280;3265;42.694;23.282;2023-05-03T05:29:50;95040.97;;;11.91;63.18
6464;BME280;3265;42.694;23.282;2023-05-03T05:32:17;95047.38;;;11.89;63.04
6464;BME280;3265;42.694;23.282;2023-05-03T05:34:44;95043.41;;;11.86;62.54
6464;BME280;3265;42.694;23.282;2023-05-03T05:37:17;95046.22;;;11.85;63.29
6464;BME280;3265;42.694;23.282;2023-05-03T05:39:44;95056.94;;;11.95;61.72
6464;BME280;3265;42.694;23.282;2023-05-03T05:42:12;95053.47;;;12.01;61.56
6464;BME280;3265;42.694;23.282;2023-05-03T05:44:39;95047.03;;;12.04;61.83
6464;BME280;3265;42.694;23.282;2023-05-03T05:47:06;95054.78;;;12.10;60.69
6464;BME280;3265;42.694;23.282;2023-05-03T05:49:32;95040.50;;;12.13;59.38
6464;BME280;3265;42.694;23.282;2023-05-03T05:51:59;95057.88;;;12.19;59.55
6464;BME280;3265;42.694;23.282;2023-05-03T05:54:26;95049.69;;;12.15;59.62
6464;BME280;3265;42.694;23.282;2023-05-03T05:56:53;95059.50;;;12.20;59.21
6464;BME280;3265;42.694;23.282;2023-05-03T05:59:21;95056.75;;;12.15;59.62
6464;BME280;3265;42.694;23.282;2023-05-03T06:01:48;95049.88;;;12.20;59.29
6464;BME280;3265;42.694;23.282;2023-05-03T06:04:15;95061.88;;;12.21;59.42
6464;BME280;3265;42.694;23.282;2023-05-03T06:06:42;95059.50;;;12.20;58.78
6464;BME280;3265;42.694;23.282;2023-05-03T06:09:09;95056.75;;;12.15;59.52
6464;BME280;3265;42.694;23.282;2023-05-03T06:11:36;95054.84;;;12.22;60.13
6464;BME280;3265;42.694;23.282;2023-05-03T06:14:03;95057.75;;;12.14;60.71
6464;BME280;3265;42.694;23.282;2023-05-03T06:16:35;95050.38;;;12.11;61.14
6464;BME280;3265;42.694;23.282;2023-05-03T06:19:02;95053.13;;;12.16;61.39
6464;BME280;3265;42.694;23.282;2023-05-03T06:21:29;95049.88;;;12.20;62.55
6464;BME280;3265;42.694;23.282;2023-05-03T06:23:56;95049.78;;;12.27;63.05
6464;BME280;3265;42.694;23.282;2023-05-03T06:26:23;95039.22;;;12.22;64.51
6464;BME280;3265;42.694;23.282;2023-05-03T06:28:49;95059.19;;;12.46;64.09
6464;BME280;3265;42.694;23.282;2023-05-03T06:31:16;95047.22;;;12.57;63.91
6464;BME280;3265;42.694;23.282;2023-05-03T06:33:45;95044.28;;;12.65;64.35
6464;BME280;3265;42.694;23.282;2023-05-03T06:36:12;95029.88;;;12.62;62.22
6464;BME280;3265;42.694;23.282;2023-05-03T06:38:39;95033.66;;;12.66;61.61
6464;BME280;3265;42.694;23.282;2023-05-03T06:41:08;95017.28;;;12.59;62.58
6464;BME280;3265;42.694;23.282;2023-05-03T06:43:35;95020.63;;;12.66;62.08
6464;BME280;3265;42.694;23.282;2023-05-03T06:46:02;95019.38;;;12.69;61.75
6464;BME280;3265;42.694;23.282;2023-05-03T06:48:29;95017.13;;;12.72;62.40
6464;BME280;3265;42.694;23.282;2023-05-03T06:50:57;95021.25;;;12.62;61.17
6464;BME280;3265;42.694;23.282;2023-05-03T06:53:24;95012.53;;;12.56;61.63
6464;BME280;3265;42.694;23.282;2023-05-03T06:55:51;95008.19;;;12.50;62.31
6464;BME280;3265;42.694;23.282;2023-05-03T06:58:18;95005.78;;;12.67;63.75
6464;BME280;3265;42.694;23.282;2023-05-03T07:00:44;95002.72;;;12.70;63.16
6464;BME280;3265;42.694;23.282;2023-05-03T07:03:12;95016.09;;;12.73;62.13
6464;BME280;3265;42.694;23.282;2023-05-03T07:05:39;95012.97;;;12.83;61.83
6464;BME280;3265;42.694;23.282;2023-05-03T07:08:08;95008.22;;;12.91;59.91
6464;BME280;3265;42.694;23.282;2023-05-03T07:10:34;94995.41;;;12.90;60.67
6464;BME280;3265;42.694;23.282;2023-05-03T07:13:01;95004.38;;;13.05;59.98
6464;BME280;3265;42.694;23.282;2023-05-03T07:15:28;95002.38;;;13.07;60.22
6464;BME280;3265;42.694;23.282;2023-05-03T07:17:55;94999.78;;;13.19;58.80
6464;BME280;3265;42.694;23.282;2023-05-03T07:20:22;95000.50;;;13.26;59.83
6464;BME280;3265;42.694;23.282;2023-05-03T07:22:49;94995.94;;;13.22;59.16
6464;BME280;3265;42.694;23.282;2023-05-03T07:25:18;95000.03;;;13.29;59.30
6464;BME280;3265;42.694;23.282;2023-05-03T07:27:45;95000.94;;;13.35;58.92
6464;BME280;3265;42.694;23.282;2023-05-03T07:30:12;95007.19;;;13.45;58.56
6464;BME280;3265;42.694;23.282;2023-05-03T07:32:39;95030.03;;;13.50;58.83
6464;BME280;3265;42.694;23.282;2023-05-03T07:35:06;95027.63;;;13.60;58.87
6464;BME280;3265;42.694;23.282;2023-05-03T07:37:33;95027.72;;;13.65;59.21
6464;BME280;3265;42.694;23.282;2023-05-03T07:40:03;95025.47;;;13.69;59.21
6464;BME280;3265;42.694;23.282;2023-05-03T07:42:33;95014.56;;;13.72;59.37
6464;BME280;3265;42.694;23.282;2023-05-03T07:45:00;95004.56;;;13.80;58.67
6464;BME280;3265;42.694;23.282;2023-05-03T07:47:27;95009.56;;;13.93;58.88
6464;BME280;3265;42.694;23.282;2023-05-03T07:49:54;95020.34;;;13.97;58.94
6464;BME280;3265;42.694;23.282;2023-05-03T07:52:20;95021.25;;;14.02;57.82
6464;BME280;3265;42.694;23.282;2023-05-03T07:54:48;95032.63;;;14.08;57.88
6464;BME280;3265;42.694;23.282;2023-05-03T07:57:17;95024.88;;;14.13;57.76
6464;BME280;3265;42.694;23.282;2023-05-03T07:59:45;95016.66;;;14.21;57.44
6464;BME280;3265;42.694;23.282;2023-05-03T08:02:12;95003.84;;;14.08;57.57
6464;BME280;3265;42.694;23.282;2023-05-03T08:04:39;95019.28;;;14.21;57.46
6464;BME280;3265;42.694;23.282;2023-05-03T08:07:06;95014.94;;;14.27;58.09
6464;BME280;3265;42.694;23.282;2023-05-03T08:09:33;95031.97;;;14.29;57.39
6464;BME280;3265;42.694;23.282;2023-05-03T08:12:00;95036.09;;;14.25;57.74
6464;BME280;3265;42.694;23.282;2023-05-03T08:14:29;95002.16;;;14.13;58.27
6464;BME280;3265;42.694;23.282;2023-05-03T08:16:57;95030.41;;;14.40;59.43
6464;BME280;3265;42.694;23.282;2023-05-03T08:19:27;94980.16;;;14.26;58.80
6464;BME280;3265;42.694;23.282;2023-05-03T08:21:55;95029.78;;;14.77;58.20
6464;BME280;3265;42.694;23.282;2023-05-03T08:24:23;95034.09;;;14.84;58.45
6464;BME280;3265;42.694;23.282;2023-05-03T08:26:50;95034.69;;;14.86;58.31
6464;BME280;3265;42.694;23.282;2023-05-03T08:31:58;95039.53;;;14.94;58.70
6464;BME280;3265;42.694;23.282;2023-05-03T08:34:26;95028.97;;;14.89;58.61
6464;BME280;3265;42.694;23.282;2023-05-03T08:36:53;95037.88;;;15.04;57.62
6464;BME280;3265;42.694;23.282;2023-05-03T08:39:21;95027.81;;;15.13;58.53
6464;BME280;3265;42.694;23.282;2023-05-03T08:41:48;95034.72;;;15.19;57.87
6464;BME280;3265;42.694;23.282;2023-05-03T08:44:19;95028.63;;;15.30;57.90
6464;BME280;3265;42.694;23.282;2023-05-03T08:46:47;95027.28;;;15.27;58.27
6464;BME280;3265;42.694;23.282;2023-05-03T08:49:16;95023.00;;;15.38;58.52
6464;BME280;3265;42.694;23.282;2023-05-03T08:51:43;95023.69;;;15.33;58.40
6464;BME280;3265;42.694;23.282;2023-05-03T08:54:11;95026.13;;;15.52;57.81
6464;BME280;3265;42.694;23.282;2023-05-03T08:56:41;95029.69;;;15.62;58.15
6464;BME280;3265;42.694;23.282;2023-05-03T08:59:08;95032.84;;;15.64;56.92
6464;BME280;3265;42.694;23.282;2023-05-03T09:01:36;95036.25;;;15.65;56.91
6464;BME280;3265;42.694;23.282;2023-05-03T09:04:04;95040.63;;;15.59;56.44
6464;BME280;3265;42.694;23.282;2023-05-03T09:06:34;95044.69;;;15.67;56.50
6464;BME280;3265;42.694;23.282;2023-05-03T09:09:03;95030.31;;;15.69;56.50
6464;BME280;3265;42.694;23.282;2023-05-03T09:11:32;95041.38;;;15.93;56.11
6464;BME280;3265;42.694;23.282;2023-05-03T09:14:07;95033.53;;;15.93;55.96
6464;BME280;3265;42.694;23.282;2023-05-03T09:16:34;95027.03;;;15.96;56.21
6464;BME280;3265;42.694;23.282;2023-05-03T09:19:02;95019.13;;;16.12;55.29
6464;BME280;3265;42.694;23.282;2023-05-03T09:21:34;95002.72;;;16.22;55.25
6464;BME280;3265;42.694;23.282;2023-05-03T09:24:03;95013.31;;;16.54;55.06
6464;BME280;3265;42.694;23.282;2023-05-03T09:26:37;95015.75;;;16.82;54.30
6464;BME280;3265;42.694;23.282;2023-05-03T09:29:05;95021.88;;;16.92;52.92
6464;BME280;3265;42.694;23.282;2023-05-03T09:31:33;95013.06;;;16.77;53.34
6464;BME280;3265;42.694;23.282;2023-05-03T09:34:01;95014.13;;;16.76;54.13
6464;BME280;3265;42.694;23.282;2023-05-03T09:36:45;95002.50;;;16.72;53.82
6464;BME280;3265;42.694;23.282;2023-05-03T09:39:15;94997.06;;;16.78;54.58
6464;BME280;3265;42.694;23.282;2023-05-03T09:41:42;94993.81;;;16.93;54.52
6464;BME280;3265;42.694;23.282;2023-05-03T09:44:09;94990.31;;;17.14;53.40
6464;BME280;3265;42.694;23.282;2023-05-03T09:46:35;94985.97;;;17.30;52.67
6464;BME280;3265;42.694;23.282;2023-05-03T09:49:02;94986.59;;;17.42;52.68
6464;BME280;3265;42.694;23.282;2023-05-03T09:51:30;94988.81;;;17.55;52.70
6464;BME280;3265;42.694;23.282;2023-05-03T09:53:58;94991.00;;;17.68;51.39
6464;BME280;3265;42.694;23.282;2023-05-03T09:56:25;94990.63;;;17.91;51.31
6464;BME280;3265;42.694;23.282;2023-05-03T09:58:53;94981.53;;;18.14;51.47
6464;BME280;3265;42.694;23.282;2023-05-03T10:01:20;94981.41;;;18.46;49.92
6464;BME280;3265;42.694;23.282;2023-05-03T10:03:50;94977.53;;;18.63;49.75
6464;BME280;3265;42.694;23.282;2023-05-03T10:06:23;94970.44;;;18.74;50.00
6464;BME280;3265;42.694;23.282;2023-05-03T10:09:02;94977.06;;;18.87;48.49
6464;BME280;3265;42.694;23.282;2023-05-03T10:11:32;94970.97;;;18.76;48.82
6464;BME280;3265;42.694;23.282;2023-05-03T10:14:00;94967.53;;;18.70;49.23
6464;BME280;3265;42.694;23.282;2023-05-03T10:16:30;94975.19;;;18.82;47.82
6464;BME280;3265;42.694;23.282;2023-05-03T10:19:05;94970.19;;;18.91;49.08
6464;BME280;3265;42.694;23.282;2023-05-03T10:21:45;94977.34;;;19.20;49.08
6464;BME280;3265;42.694;23.282;2023-05-03T10:24:15;94955.75;;;19.49;47.46
6464;BME280;3265;42.694;23.282;2023-05-03T10:26:44;94953.31;;;19.83;46.84
6464;BME280;3265;42.694;23.282;2023-05-03T10:32:31;94929.34;;;19.64;46.21
6464;BME280;3265;42.694;23.282;2023-05-03T10:35:00;94934.13;;;19.47;46.08
6464;BME280;3265;42.694;23.282;2023-05-03T10:37:27;94934.94;;;19.47;47.59
6464;BME280;3265;42.694;23.282;2023-05-03T10:40:06;94932.28;;;19.52;47.85
6464;BME280;3265;42.694;23.282;2023-05-03T10:42:35;94922.53;;;19.53;47.93
6464;BME280;3265;42.694;23.282;2023-05-03T10:45:03;94934.38;;;19.60;48.14
6464;BME280;3265;42.694;23.282;2023-05-03T10:47:32;94935.19;;;19.56;47.39
6464;BME280;3265;42.694;23.282;2023-05-03T10:50:24;94932.53;;;19.46;47.83
6464;BME280;3265;42.694;23.282;2023-05-03T10:52:51;94932.53;;;19.46;48.28
6464;BME280;3265;42.694;23.282;2023-05-03T10:55:21;94917.00;;;19.39;48.61
6464;BME280;3265;42.694;23.282;2023-05-03T10:57:52;94912.22;;;19.31;49.03
6464;BME280;3265;42.694;23.282;2023-05-03T11:00:23;94926.47;;;19.35;47.62
6464;BME280;3265;42.694;23.282;2023-05-03T11:06:00;94932.28;;;18.92;49.62
6464;BME280;3265;42.694;23.282;2023-05-03T11:08:28;94914.09;;;18.85;49.41
6464;BME280;3265;42.694;23.282;2023-05-03T11:11:03;94917.53;;;18.76;50.27
6464;BME280;3265;42.694;23.282;2023-05-03T11:13:35;94894.31;;;18.57;50.32
6464;BME280;3265;42.694;23.282;2023-05-03T11:16:03;94916.69;;;18.60;50.68
6464;BME280;3265;42.694;23.282;2023-05-03T11:18:30;94915.38;;;18.67;50.31
6464;BME280;3265;42.694;23.282;2023-05-03T11:20:58;94913.28;;;18.85;50.49
6464;BME280;3265;42.694;23.282;2023-05-03T11:23:26;94909.91;;;19.04;50.78
6464;BME280;3265;42.694;23.282;2023-05-03T11:25:53;94900.13;;;19.00;50.74
6464;BME280;3265;42.694;23.282;2023-05-03T11:28:22;94908.81;;;19.05;51.13
6464;BME280;3265;42.694;23.282;2023-05-03T11:30:49;94901.97;;;19.09;50.99
6464;BME280;3265;42.694;23.282;2023-05-03T11:33:16;94871.94;;;19.05;51.54
6464;BME280;3265;42.694;23.282;2023-05-03T11:35:43;94888.78;;;19.19;50.99
6464;BME280;3265;42.694;23.282;2023-05-03T11:38:13;94898.53;;;19.29;49.73
6464;BME280;3265;42.694;23.282;2023-05-03T11:40:39;94889.81;;;19.28;50.23
6464;BME280;3265;42.694;23.282;2023-05-03T11:43:06;94900.63;;;19.37;50.14
6464;BME280;3265;42.694;23.282;2023-05-03T11:45:40;94895.66;;;19.31;50.65
6464;BME280;3265;42.694;23.282;2023-05-03T11:48:08;94880.88;;;19.45;50.44
6464;BME280;3265;42.694;23.282;2023-05-03T11:50:45;94886.00;;;19.90;49.73
6464;BME280;3265;42.694;23.282;2023-05-03T11:53:13;94868.47;;;20.19;48.88
6464;BME280;3265;42.694;23.282;2023-05-03T11:55:42;94878.19;;;20.29;48.21
6464;BME280;3265;42.694;23.282;2023-05-03T11:58:12;94874.25;;;20.21;47.97
6464;BME280;3265;42.694;23.282;2023-05-03T12:00:43;94871.88;;;20.30;47.94
6464;BME280;3265;42.694;23.282;2023-05-03T12:03:15;94865.78;;;20.34;48.06
6464;BME280;3265;42.694;23.282;2023-05-03T12:05:43;94868.03;;;20.51;47.84
6464;BME280;3265;42.694;23.282;2023-05-03T12:08:10;94865.81;;;20.68;48.02
6464;BME280;3265;42.694;23.282;2023-05-03T12:10:37;94869.84;;;20.94;46.66
6464;BME280;3265;42.694;23.282;2023-05-03T12:13:04;94865.34;;;21.29;46.20
6464;BME280;3265;42.694;23.282;2023-05-03T12:15:33;94871.88;;;21.60;45.59
6464;BME280;3265;42.694;23.282;2023-05-03T12:18:04;94870.47;;;21.68;44.64
6464;BME280;3265;42.694;23.282;2023-05-03T12:20:31;94860.19;;;21.66;44.57
6464;BME280;3265;42.694;23.282;2023-05-03T12:23:00;94862.81;;;21.42;44.70
6464;BME280;3265;42.694;23.282;2023-05-03T12:25:27;94864.84;;;21.27;44.83
6464;BME280;3265;42.694;23.282;2023-05-03T12:27:56;94861.38;;;20.92;45.78
6464;BME280;3265;42.694;23.282;2023-05-03T12:30:23;94855.28;;;20.63;45.80
6464;BME280;3265;42.694;23.282;2023-05-03T12:32:50;94848.66;;;20.27;46.96
6464;BME280;3265;42.694;23.282;2023-05-03T12:35:19;94862.97;;;20.11;47.24
6464;BME280;3265;42.694;23.282;2023-05-03T12:37:47;94859.72;;;19.70;48.27
6464;BME280;3265;42.694;23.282;2023-05-03T12:40:14;94846.63;;;19.19;49.48
6464;BME280;3265;42.694;23.282;2023-05-03T12:42:42;94857.22;;;18.84;51.12
6464;BME280;3265;42.694;23.282;2023-05-03T12:45:10;94838.47;;;18.50;51.83
6464;BME280;3265;42.694;23.282;2023-05-03T12:47:37;94840.81;;;18.42;53.11
6464;BME280;3265;42.694;23.282;2023-05-03T12:50:05;94846.03;;;18.17;53.68
6464;BME280;3265;42.694;23.282;2023-05-03T12:52:34;94842.06;;;18.04;54.47
6464;BME280;3265;42.694;23.282;2023-05-03T12:55:06;94836.78;;;17.94;54.83
6464;BME280;3265;42.694;23.282;2023-05-03T12:57:33;94826.44;;;17.72;55.60
6464;BME280;3265;42.694;23.282;2023-05-03T13:00:00;94838.53;;;17.73;56.12
6464;BME280;3265;42.694;23.282;2023-05-03T13:02:29;94834.81;;;17.64;56.21
6464;BME280;3265;42.694;23.282;2023-05-03T13:05:00;94795.19;;;17.24;57.77
6464;BME280;3265;42.694;23.282;2023-05-03T13:07:27;94817.28;;;17.28;60.05
6464;BME280;3265;42.694;23.282;2023-05-03T13:09:56;94790.91;;;17.08;63.03
6464;BME280;3265;42.694;23.282;2023-05-03T13:12:24;94829.31;;;17.19;62.45
6464;BME280;3265;42.694;23.282;2023-05-03T13:14:52;94824.59;;;17.21;63.11
6464;BME280;3265;42.694;23.282;2023-05-03T13:17:20;94821.63;;;17.07;64.16
6464;BME280;3265;42.694;23.282;2023-05-03T13:19:48;94825.53;;;16.99;64.63
6464;BME280;3265;42.694;23.282;2023-05-03T13:22:18;94850.63;;;16.85;64.21
6464;BME280;3265;42.694;23.282;2023-05-03T13:24:46;94841.91;;;16.80;65.67
6464;BME280;3265;42.694;23.282;2023-05-03T13:27:15;94853.78;;;16.82;65.84